sensor_id;sensor_type;location;lat;lon;timestamp;P1;durP1;ratioP1;P2;durP2;ratioP2
51660;SDS011;37741;49.748;8.490;2023-04-15T00:01:02;6.30;;;2.10;;
51660;SDS011;37741;49.748;8.490;2023-04-15T00:03:29;4.18;;;2.33;;
51660;SDS011;37741;49.748;8.490;2023-04-15T00:05:56;5.05;;;2.22;;
51660;SDS011;37741;49.748;8.490;2023-04-15T00:08:22;5.18;;;1.92;;
51660;SDS011;37741;49.748;8.490;2023-04-15T00:10:48;4.15;;;2.10;;
51660;SDS011;37741;49.748;8.490;2023-04-15T00:13:14;4.60;;;2.15;;
51660;SDS011;37741;49.748;8.490;2023-04-15T00:15:40;7.95;;;2.42;;
51660;SDS011;37741;49.748;8.490;2023-04-15T00:18:06;4.93;;;2.45;;
51660;SDS011;37741;49.748;8.490;2023-04-15T00:20:33;4.00;;;1.80;;
51660;SDS011;37741;49.748;8.490;2023-04-15T00:22:59;5.30;;;2.13;;
51660;SDS011;37741;49.748;8.490;2023-04-15T00:25:26;5.63;;;2.33;;
51660;SDS011;37741;49.748;8.490;2023-04-15T00:27:52;4.93;;;2.22;;
51660;SDS011;37741;49.748;8.490;2023-04-15T00:30:18;4.38;;;2.28;;
51660;SDS011;37741;49.748;8.490;2023-04-15T00:32:44;4.35;;;1.90;;
51660;SDS011;37741;49.748;8.490;2023-04-15T00:35:10;7.97;;;2.67;;
51660;SDS011;37741;49.748;8.490;2023-04-15T00:37:36;4.93;;;2.30;;
51660;SDS011;37741;49.748;8.490;2023-04-15T00:40:02;6.03;;;2.22;;
51660;SDS011;37741;49.748;8.490;2023-04-15T00:42:30;4.53;;;2.33;;
51660;SDS011;37741;49.748;8.490;2023-04-15T00:44:55;5.93;;;2.00;;
51660;SDS011;37741;49.748;8.490;2023-04-15T00:47:21;5.47;;;2.45;;
51660;SDS011;37741;49.748;8.490;2023-04-15T00:49:47;5.00;;;2.60;;
51660;SDS011;37741;49.748;8.490;2023-04-15T00:52:13;4.90;;;2.90;;
51660;SDS011;37741;49.748;8.490;2023-04-15T00:54:39;7.15;;;2.45;;
51660;SDS011;37741;49.748;8.490;2023-04-15T00:57:05;6.30;;;3.00;;
51660;SDS011;37741;49.748;8.490;2023-04-15T00:59:31;6.68;;;3.33;;
51660;SDS011;37741;49.748;8.490;2023-04-15T01:01:58;6.22;;;3.13;;
51660;SDS011;37741;49.748;8.490;2023-04-15T01:04:23;6.00;;;2.30;;
51660;SDS011;37741;49.748;8.490;2023-04-15T01:06:49;4.45;;;2.92;;
51660;SDS011;37741;49.748;8.490;2023-04-15T01:09:16;6.50;;;3.10;;
51660;SDS011;37741;49.748;8.490;2023-04-15T01:11:42;3.90;;;2.33;;
51660;SDS011;37741;49.748;8.490;2023-04-15T01:14:08;5.47;;;2.35;;
51660;SDS011;37741;49.748;8.490;2023-04-15T01:16:35;5.32;;;3.08;;
51660;SDS011;37741;49.748;8.490;2023-04-15T01:19:04;4.82;;;3.42;;
51660;SDS011;37741;49.748;8.490;2023-04-15T01:21:35;7.00;;;3.10;;
51660;SDS011;37741;49.748;8.490;2023-04-15T01:24:02;4.75;;;3.17;;
51660;SDS011;37741;49.748;8.490;2023-04-15T01:26:32;5.72;;;2.85;;
51660;SDS011;37741;49.748;8.490;2023-04-15T01:28:58;5.38;;;2.88;;
51660;SDS011;37741;49.748;8.490;2023-04-15T01:31:24;6.70;;;2.63;;
51660;SDS011;37741;49.748;8.490;2023-04-15T01:33:49;6.78;;;3.33;;
51660;SDS011;37741;49.748;8.490;2023-04-15T01:36:15;4.22;;;2.85;;
51660;SDS011;37741;49.748;8.490;2023-04-15T01:38:41;8.25;;;3.13;;
51660;SDS011;37741;49.748;8.490;2023-04-15T01:41:06;5.43;;;2.90;;
51660;SDS011;37741;49.748;8.490;2023-04-15T01:43:33;6.07;;;3.05;;
51660;SDS011;37741;49.748;8.490;2023-04-15T01:46:00;4.55;;;3.30;;
51660;SDS011;37741;49.748;8.490;2023-04-15T01:48:26;5.32;;;3.00;;
51660;SDS011;37741;49.748;8.490;2023-04-15T01:50:52;5.00;;;2.70;;
51660;SDS011;37741;49.748;8.490;2023-04-15T01:53:18;4.78;;;3.03;;
51660;SDS011;37741;49.748;8.490;2023-04-15T01:55:44;5.50;;;3.08;;
51660;SDS011;37741;49.748;8.490;2023-04-15T01:58:10;5.70;;;3.05;;
51660;SDS011;37741;49.748;8.490;2023-04-15T02:00:36;5.30;;;2.95;;
51660;SDS011;37741;49.748;8.490;2023-04-15T02:03:02;5.45;;;2.90;;
51660;SDS011;37741;49.748;8.490;2023-04-15T02:05:28;5.15;;;2.78;;
51660;SDS011;37741;49.748;8.490;2023-04-15T02:07:53;7.03;;;2.72;;
51660;SDS011;37741;49.748;8.490;2023-04-15T02:10:19;5.38;;;2.53;;
51660;SDS011;37741;49.748;8.490;2023-04-15T02:12:45;6.20;;;2.53;;
51660;SDS011;37741;49.748;8.490;2023-04-15T02:15:10;5.28;;;2.35;;
51660;SDS011;37741;49.748;8.490;2023-04-15T02:17:36;5.35;;;2.55;;
51660;SDS011;37741;49.748;8.490;2023-04-15T02:20:02;4.00;;;2.30;;
51660;SDS011;37741;49.748;8.490;2023-04-15T02:22:32;4.75;;;2.20;;
51660;SDS011;37741;49.748;8.490;2023-04-15T02:24:58;5.40;;;2.22;;
51660;SDS011;37741;49.748;8.490;2023-04-15T02:27:24;4.88;;;2.45;;
51660;SDS011;37741;49.748;8.490;2023-04-15T02:29:50;7.22;;;2.60;;
51660;SDS011;37741;49.748;8.490;2023-04-15T02:32:16;4.15;;;2.70;;
51660;SDS011;37741;49.748;8.490;2023-04-15T02:34:41;5.78;;;2.40;;
51660;SDS011;37741;49.748;8.490;2023-04-15T02:37:10;3.72;;;2.22;;
51660;SDS011;37741;49.748;8.490;2023-04-15T02:39:37;4.63;;;2.28;;
51660;SDS011;37741;49.748;8.490;2023-04-15T02:42:03;6.10;;;2.55;;
51660;SDS011;37741;49.748;8.490;2023-04-15T02:44:30;6.63;;;2.53;;
51660;SDS011;37741;49.748;8.490;2023-04-15T02:46:56;5.53;;;2.60;;
51660;SDS011;37741;49.748;8.490;2023-04-15T02:49:23;4.30;;;2.40;;
51660;SDS011;37741;49.748;8.490;2023-04-15T02:51:49;6.43;;;2.55;;
51660;SDS011;37741;49.748;8.490;2023-04-15T02:54:18;5.20;;;2.90;;
51660;SDS011;37741;49.748;8.490;2023-04-15T02:56:44;4.05;;;2.10;;
51660;SDS011;37741;49.748;8.490;2023-04-15T02:59:13;4.47;;;2.08;;
51660;SDS011;37741;49.748;8.490;2023-04-15T03:01:38;4.63;;;2.35;;
51660;SDS011;37741;49.748;8.490;2023-04-15T03:04:04;3.70;;;2.03;;
51660;SDS011;37741;49.748;8.490;2023-04-15T03:06:31;5.15;;;2.83;;
51660;SDS011;37741;49.748;8.490;2023-04-15T03:08:57;3.88;;;2.13;;
51660;SDS011;37741;49.748;8.490;2023-04-15T03:11:24;4.80;;;2.25;;
51660;SDS011;37741;49.748;8.490;2023-04-15T03:13:51;4.00;;;2.28;;
51660;SDS011;37741;49.748;8.490;2023-04-15T03:16:16;3.47;;;2.03;;
51660;SDS011;37741;49.748;8.490;2023-04-15T03:18:42;3.33;;;1.98;;
51660;SDS011;37741;49.748;8.490;2023-04-15T03:21:08;5.30;;;2.20;;
51660;SDS011;37741;49.748;8.490;2023-04-15T03:23:33;4.30;;;1.92;;
51660;SDS011;37741;49.748;8.490;2023-04-15T03:26:02;5.70;;;2.70;;
51660;SDS011;37741;49.748;8.490;2023-04-15T03:28:29;3.60;;;1.90;;
51660;SDS011;37741;49.748;8.490;2023-04-15T03:30:55;6.50;;;2.47;;
51660;SDS011;37741;49.748;8.490;2023-04-15T03:33:20;4.50;;;2.15;;
51660;SDS011;37741;49.748;8.490;2023-04-15T03:35:46;4.25;;;2.08;;
51660;SDS011;37741;49.748;8.490;2023-04-15T03:38:12;4.75;;;2.25;;
51660;SDS011;37741;49.748;8.490;2023-04-15T03:40:40;4.72;;;2.00;;
51660;SDS011;37741;49.748;8.490;2023-04-15T03:43:06;3.35;;;1.77;;
51660;SDS011;37741;49.748;8.490;2023-04-15T03:45:31;4.35;;;2.08;;
51660;SDS011;37741;49.748;8.490;2023-04-15T03:47:57;4.00;;;2.08;;
51660;SDS011;37741;49.748;8.490;2023-04-15T03:50:23;4.40;;;2.17;;
51660;SDS011;37741;49.748;8.490;2023-04-15T03:52:49;4.57;;;2.00;;
51660;SDS011;37741;49.748;8.490;2023-04-15T03:55:14;3.38;;;2.00;;
51660;SDS011;37741;49.748;8.490;2023-04-15T03:57:40;4.45;;;2.20;;
51660;SDS011;37741;49.748;8.490;2023-04-15T04:00:06;5.93;;;2.00;;
51660;SDS011;37741;49.748;8.490;2023-04-15T04:02:35;5.03;;;1.73;;
51660;SDS011;37741;49.748;8.490;2023-04-15T04:05:01;4.45;;;1.98;;
51660;SDS011;37741;49.748;8.490;2023-04-15T04:07:27;3.88;;;1.95;;
51660;SDS011;37741;49.748;8.490;2023-04-15T04:09:52;4.40;;;1.90;;
51660;SDS011;37741;49.748;8.490;2023-04-15T04:12:18;3.65;;;1.92;;
51660;SDS011;37741;49.748;8.490;2023-04-15T04:14:43;4.10;;;1.90;;
51660;SDS011;37741;49.748;8.490;2023-04-15T04:17:09;3.38;;;1.80;;
51660;SDS011;37741;49.748;8.490;2023-04-15T04:19:35;4.45;;;1.88;;
51660;SDS011;37741;49.748;8.490;2023-04-15T04:22:01;3.72;;;2.03;;
51660;SDS011;37741;49.748;8.490;2023-04-15T04:24:26;5.70;;;2.30;;
51660;SDS011;37741;49.748;8.490;2023-04-15T04:26:52;6.63;;;2.58;;
51660;SDS011;37741;49.748;8.490;2023-04-15T04:29:18;4.28;;;1.90;;
51660;SDS011;37741;49.748;8.490;2023-04-15T04:31:43;6.90;;;1.95;;
51660;SDS011;37741;49.748;8.490;2023-04-15T04:34:09;4.43;;;2.33;;
51660;SDS011;37741;49.748;8.490;2023-04-15T04:36:35;4.25;;;2.05;;
51660;SDS011;37741;49.748;8.490;2023-04-15T04:39:01;5.13;;;2.05;;
51660;SDS011;37741;49.748;8.490;2023-04-15T04:41:26;5.75;;;1.92;;
51660;SDS011;37741;49.748;8.490;2023-04-15T04:43:52;3.78;;;2.15;;
51660;SDS011;37741;49.748;8.490;2023-04-15T04:46:18;3.90;;;2.22;;
51660;SDS011;37741;49.748;8.490;2023-04-15T04:48:43;6.10;;;2.50;;
51660;SDS011;37741;49.748;8.490;2023-04-15T04:51:09;4.35;;;2.00;;
51660;SDS011;37741;49.748;8.490;2023-04-15T04:53:35;4.60;;;2.42;;
51660;SDS011;37741;49.748;8.490;2023-04-15T04:56:01;3.53;;;1.85;;
51660;SDS011;37741;49.748;8.490;2023-04-15T04:58:27;5.00;;;2.42;;
51660;SDS011;37741;49.748;8.490;2023-04-15T05:00:53;3.40;;;2.05;;
51660;SDS011;37741;49.748;8.490;2023-04-15T05:03:19;3.42;;;1.90;;
51660;SDS011;37741;49.748;8.490;2023-04-15T05:05:44;5.88;;;2.10;;
51660;SDS011;37741;49.748;8.490;2023-04-15T05:08:10;4.03;;;1.75;;
51660;SDS011;37741;49.748;8.490;2023-04-15T05:10:36;4.35;;;2.10;;
51660;SDS011;37741;49.748;8.490;2023-04-15T05:13:01;4.75;;;1.80;;
51660;SDS011;37741;49.748;8.490;2023-04-15T05:15:27;3.63;;;2.08;;
51660;SDS011;37741;49.748;8.490;2023-04-15T05:17:53;4.68;;;2.10;;
51660;SDS011;37741;49.748;8.490;2023-04-15T05:20:19;3.13;;;2.00;;
51660;SDS011;37741;49.748;8.490;2023-04-15T05:22:44;4.75;;;2.55;;
51660;SDS011;37741;49.748;8.490;2023-04-15T05:25:10;4.47;;;2.40;;
51660;SDS011;37741;49.748;8.490;2023-04-15T05:27:36;4.35;;;2.08;;
51660;SDS011;37741;49.748;8.490;2023-04-15T05:30:02;4.10;;;2.30;;
51660;SDS011;37741;49.748;8.490;2023-04-15T05:32:27;5.47;;;2.60;;
51660;SDS011;37741;49.748;8.490;2023-04-15T05:34:53;3.85;;;1.88;;
51660;SDS011;37741;49.748;8.490;2023-04-15T05:37:19;6.07;;;1.95;;
51660;SDS011;37741;49.748;8.490;2023-04-15T05:39:47;4.13;;;2.30;;
51660;SDS011;37741;49.748;8.490;2023-04-15T05:42:13;5.63;;;2.58;;
51660;SDS011;37741;49.748;8.490;2023-04-15T05:44:38;5.18;;;2.42;;
51660;SDS011;37741;49.748;8.490;2023-04-15T05:47:04;5.43;;;2.10;;
51660;SDS011;37741;49.748;8.490;2023-04-15T05:49:31;4.22;;;2.00;;
51660;SDS011;37741;49.748;8.490;2023-04-15T05:51:56;4.45;;;2.40;;
51660;SDS011;37741;49.748;8.490;2023-04-15T05:54:22;4.47;;;2.30;;
51660;SDS011;37741;49.748;8.490;2023-04-15T05:56:48;4.22;;;2.38;;
51660;SDS011;37741;49.748;8.490;2023-04-15T05:59:21;4.00;;;1.85;;
51660;SDS011;37741;49.748;8.490;2023-04-15T06:01:47;4.18;;;2.70;;
51660;SDS011;37741;49.748;8.490;2023-04-15T06:04:13;5.00;;;2.38;;
51660;SDS011;37741;49.748;8.490;2023-04-15T06:06:39;4.53;;;2.53;;
51660;SDS011;37741;49.748;8.490;2023-04-15T06:09:05;3.90;;;2.05;;
51660;SDS011;37741;49.748;8.490;2023-04-15T06:11:30;4.60;;;2.35;;
51660;SDS011;37741;49.748;8.490;2023-04-15T06:13:56;5.00;;;2.50;;
51660;SDS011;37741;49.748;8.490;2023-04-15T06:16:21;3.72;;;2.10;;
51660;SDS011;37741;49.748;8.490;2023-04-15T06:18:47;5.25;;;2.33;;
51660;SDS011;37741;49.748;8.490;2023-04-15T06:21:13;7.88;;;2.97;;
51660;SDS011;37741;49.748;8.490;2023-04-15T06:23:39;7.82;;;3.17;;
51660;SDS011;37741;49.748;8.490;2023-04-15T06:26:05;6.90;;;2.58;;
51660;SDS011;37741;49.748;8.490;2023-04-15T06:28:31;6.28;;;3.08;;
51660;SDS011;37741;49.748;8.490;2023-04-15T06:30:57;5.97;;;3.05;;
51660;SDS011;37741;49.748;8.490;2023-04-15T06:33:23;6.15;;;2.83;;
51660;SDS011;37741;49.748;8.490;2023-04-15T06:35:48;4.80;;;3.03;;
51660;SDS011;37741;49.748;8.490;2023-04-15T06:38:14;4.45;;;2.72;;
51660;SDS011;37741;49.748;8.490;2023-04-15T06:40:40;5.47;;;3.20;;
51660;SDS011;37741;49.748;8.490;2023-04-15T06:43:06;5.82;;;3.08;;
51660;SDS011;37741;49.748;8.490;2023-04-15T06:45:32;4.47;;;2.92;;
51660;SDS011;37741;49.748;8.490;2023-04-15T06:47:57;5.22;;;2.50;;
51660;SDS011;37741;49.748;8.490;2023-04-15T06:50:23;7.50;;;3.10;;
51660;SDS011;37741;49.748;8.490;2023-04-15T06:52:49;6.35;;;3.20;;
51660;SDS011;37741;49.748;8.490;2023-04-15T06:55:14;4.70;;;3.00;;
51660;SDS011;37741;49.748;8.490;2023-04-15T06:57:40;6.22;;;3.40;;
51660;SDS011;37741;49.748;8.490;2023-04-15T07:00:06;5.47;;;3.03;;
51660;SDS011;37741;49.748;8.490;2023-04-15T07:02:32;6.55;;;3.03;;
51660;SDS011;37741;49.748;8.490;2023-04-15T07:04:58;4.55;;;2.85;;
51660;SDS011;37741;49.748;8.490;2023-04-15T07:07:23;6.40;;;3.10;;
51660;SDS011;37741;49.748;8.490;2023-04-15T07:09:49;5.00;;;2.65;;
51660;SDS011;37741;49.748;8.490;2023-04-15T07:12:17;4.75;;;2.47;;
51660;SDS011;37741;49.748;8.490;2023-04-15T07:14:43;6.07;;;3.28;;
51660;SDS011;37741;49.748;8.490;2023-04-15T07:17:09;6.88;;;3.55;;
51660;SDS011;37741;49.748;8.490;2023-04-15T07:19:34;7.97;;;3.63;;
51660;SDS011;37741;49.748;8.490;2023-04-15T07:22:00;6.53;;;3.53;;
51660;SDS011;37741;49.748;8.490;2023-04-15T07:24:26;6.55;;;3.58;;
51660;SDS011;37741;49.748;8.490;2023-04-15T07:26:53;5.82;;;3.25;;
51660;SDS011;37741;49.748;8.490;2023-04-15T07:29:21;5.60;;;3.08;;
51660;SDS011;37741;49.748;8.490;2023-04-15T07:31:47;5.20;;;3.13;;
51660;SDS011;37741;49.748;8.490;2023-04-15T07:34:13;5.78;;;3.30;;
51660;SDS011;37741;49.748;8.490;2023-04-15T07:36:38;7.18;;;3.60;;
51660;SDS011;37741;49.748;8.490;2023-04-15T07:39:04;7.82;;;3.63;;
51660;SDS011;37741;49.748;8.490;2023-04-15T07:41:30;6.10;;;3.17;;
51660;SDS011;37741;49.748;8.490;2023-04-15T07:43:56;7.60;;;3.50;;
51660;SDS011;37741;49.748;8.490;2023-04-15T07:46:21;5.60;;;3.40;;
51660;SDS011;37741;49.748;8.490;2023-04-15T07:48:48;6.30;;;3.55;;
51660;SDS011;37741;49.748;8.490;2023-04-15T07:51:15;7.20;;;3.55;;
51660;SDS011;37741;49.748;8.490;2023-04-15T07:53:41;7.78;;;3.60;;
51660;SDS011;37741;49.748;8.490;2023-04-15T07:56:08;7.13;;;3.50;;
51660;SDS011;37741;49.748;8.490;2023-04-15T07:58:34;7.60;;;4.00;;
51660;SDS011;37741;49.748;8.490;2023-04-15T08:01:00;5.20;;;3.75;;
51660;SDS011;37741;49.748;8.490;2023-04-15T08:03:26;11.25;;;4.03;;
51660;SDS011;37741;49.748;8.490;2023-04-15T08:05:52;8.30;;;4.05;;
51660;SDS011;37741;49.748;8.490;2023-04-15T08:08:18;8.02;;;4.45;;
51660;SDS011;37741;49.748;8.490;2023-04-15T08:10:43;7.88;;;4.10;;
51660;SDS011;37741;49.748;8.490;2023-04-15T08:13:09;5.90;;;4.28;;
51660;SDS011;37741;49.748;8.490;2023-04-15T08:15:35;5.53;;;3.63;;
51660;SDS011;37741;49.748;8.490;2023-04-15T08:18:01;6.93;;;4.07;;
51660;SDS011;37741;49.748;8.490;2023-04-15T08:20:26;5.13;;;3.80;;
51660;SDS011;37741;49.748;8.490;2023-04-15T08:22:52;6.20;;;4.10;;
51660;SDS011;37741;49.748;8.490;2023-04-15T08:25:18;5.43;;;4.10;;
51660;SDS011;37741;49.748;8.490;2023-04-15T08:27:44;8.48;;;4.72;;
51660;SDS011;37741;49.748;8.490;2023-04-15T08:30:10;8.75;;;5.05;;
51660;SDS011;37741;49.748;8.490;2023-04-15T08:32:36;7.03;;;4.63;;
51660;SDS011;37741;49.748;8.490;2023-04-15T08:35:02;9.55;;;5.30;;
51660;SDS011;37741;49.748;8.490;2023-04-15T08:37:28;6.72;;;4.78;;
51660;SDS011;37741;49.748;8.490;2023-04-15T08:39:54;8.75;;;5.60;;
51660;SDS011;37741;49.748;8.490;2023-04-15T08:42:22;9.65;;;5.10;;
51660;SDS011;37741;49.748;8.490;2023-04-15T08:44:55;6.90;;;5.05;;
51660;SDS011;37741;49.748;8.490;2023-04-15T08:47:23;7.55;;;5.35;;
51660;SDS011;37741;49.748;8.490;2023-04-15T08:49:53;7.90;;;5.18;;
51660;SDS011;37741;49.748;8.490;2023-04-15T08:52:23;7.30;;;5.10;;
51660;SDS011;37741;49.748;8.490;2023-04-15T08:54:50;6.25;;;5.47;;
51660;SDS011;37741;49.748;8.490;2023-04-15T08:57:20;9.27;;;6.13;;
51660;SDS011;37741;49.748;8.490;2023-04-15T08:59:50;7.30;;;5.07;;
51660;SDS011;37741;49.748;8.490;2023-04-15T09:02:18;8.70;;;6.03;;
51660;SDS011;37741;49.748;8.490;2023-04-15T09:04:44;7.15;;;5.35;;
51660;SDS011;37741;49.748;8.490;2023-04-15T09:07:10;9.05;;;5.57;;
51660;SDS011;37741;49.748;8.490;2023-04-15T09:09:36;9.68;;;6.10;;
51660;SDS011;37741;49.748;8.490;2023-04-15T09:12:04;6.97;;;5.63;;
51660;SDS011;37741;49.748;8.490;2023-04-15T09:14:29;8.32;;;6.30;;
51660;SDS011;37741;49.748;8.490;2023-04-15T09:17:00;8.32;;;6.05;;
51660;SDS011;37741;49.748;8.490;2023-04-15T09:19:27;8.27;;;6.65;;
51660;SDS011;37741;49.748;8.490;2023-04-15T09:21:54;9.30;;;6.55;;
51660;SDS011;37741;49.748;8.490;2023-04-15T09:24:21;12.88;;;7.55;;
51660;SDS011;37741;49.748;8.490;2023-04-15T09:26:47;10.07;;;6.50;;
51660;SDS011;37741;49.748;8.490;2023-04-15T09:29:17;11.05;;;6.50;;
51660;SDS011;37741;49.748;8.490;2023-04-15T09:31:43;8.77;;;5.97;;
51660;SDS011;37741;49.748;8.490;2023-04-15T09:34:09;12.63;;;6.32;;
51660;SDS011;37741;49.748;8.490;2023-04-15T09:36:54;7.22;;;5.88;;
51660;SDS011;37741;49.748;8.490;2023-04-15T09:39:21;9.70;;;5.45;;
51660;SDS011;37741;49.748;8.490;2023-04-15T09:41:51;10.15;;;5.70;;
51660;SDS011;37741;49.748;8.490;2023-04-15T09:44:28;9.98;;;5.45;;
51660;SDS011;37741;49.748;8.490;2023-04-15T09:46:54;10.15;;;5.90;;
51660;SDS011;37741;49.748;8.490;2023-04-15T09:49:20;8.65;;;5.07;;
51660;SDS011;37741;49.748;8.490;2023-04-15T09:51:45;7.68;;;5.60;;
51660;SDS011;37741;49.748;8.490;2023-04-15T09:54:11;8.00;;;5.95;;
51660;SDS011;37741;49.748;8.490;2023-04-15T09:56:37;20.63;;;6.40;;
51660;SDS011;37741;49.748;8.490;2023-04-15T09:59:06;15.65;;;6.07;;
51660;SDS011;37741;49.748;8.490;2023-04-15T10:01:33;13.63;;;5.75;;
51660;SDS011;37741;49.748;8.490;2023-04-15T10:04:01;8.35;;;5.15;;
51660;SDS011;37741;49.748;8.490;2023-04-15T10:06:28;7.70;;;5.32;;
51660;SDS011;37741;49.748;8.490;2023-04-15T10:08:54;8.25;;;5.65;;
51660;SDS011;37741;49.748;8.490;2023-04-15T10:11:27;11.43;;;5.10;;
51660;SDS011;37741;49.748;8.490;2023-04-15T10:13:53;5.55;;;4.78;;
51660;SDS011;37741;49.748;8.490;2023-04-15T10:16:20;7.75;;;4.90;;
51660;SDS011;37741;49.748;8.490;2023-04-15T10:18:50;6.38;;;4.38;;
51660;SDS011;37741;49.748;8.490;2023-04-15T10:21:19;6.13;;;4.43;;
51660;SDS011;37741;49.748;8.490;2023-04-15T10:23:47;5.78;;;4.07;;
51660;SDS011;37741;49.748;8.490;2023-04-15T10:26:13;5.00;;;3.58;;
51660;SDS011;37741;49.748;8.490;2023-04-15T10:28:41;5.78;;;4.20;;
51660;SDS011;37741;49.748;8.490;2023-04-15T10:31:07;5.95;;;3.17;;
51660;SDS011;37741;49.748;8.490;2023-04-15T10:33:35;4.60;;;3.20;;
51660;SDS011;37741;49.748;8.490;2023-04-15T10:36:02;4.72;;;3.80;;
51660;SDS011;37741;49.748;8.490;2023-04-15T10:38:36;5.90;;;2.67;;
51660;SDS011;37741;49.748;8.490;2023-04-15T10:41:16;5.20;;;3.08;;
51660;SDS011;37741;49.748;8.490;2023-04-15T10:43:49;4.90;;;2.95;;
51660;SDS011;37741;49.748;8.490;2023-04-15T10:46:35;5.47;;;3.50;;
51660;SDS011;37741;49.748;8.490;2023-04-15T10:49:14;5.13;;;2.92;;
51660;SDS011;37741;49.748;8.490;2023-04-15T10:51:42;4.28;;;2.90;;
51660;SDS011;37741;49.748;8.490;2023-04-15T10:54:12;5.13;;;2.50;;
51660;SDS011;37741;49.748;8.490;2023-04-15T10:56:43;6.32;;;2.47;;
51660;SDS011;37741;49.748;8.490;2023-04-15T10:59:09;4.68;;;2.30;;
51660;SDS011;37741;49.748;8.490;2023-04-15T11:01:52;4.28;;;2.33;;
51660;SDS011;37741;49.748;8.490;2023-04-15T11:12:50;4.68;;;2.40;;
51660;SDS011;37741;49.748;8.490;2023-04-15T11:18:08;10.45;;;2.80;;
51660;SDS011;37741;49.748;8.490;2023-04-15T11:20:39;15.13;;;3.00;;
51660;SDS011;37741;49.748;8.490;2023-04-15T11:23:08;6.43;;;2.55;;
51660;SDS011;37741;49.748;8.490;2023-04-15T11:25:34;5.40;;;1.92;;
51660;SDS011;37741;49.748;8.490;2023-04-15T11:28:03;7.47;;;2.38;;
51660;SDS011;37741;49.748;8.490;2023-04-15T11:30:33;9.05;;;2.28;;
51660;SDS011;37741;49.748;8.490;2023-04-15T11:33:02;3.40;;;2.10;;
51660;SDS011;37741;49.748;8.490;2023-04-15T11:35:29;5.68;;;1.77;;
51660;SDS011;37741;49.748;8.490;2023-04-15T11:37:55;6.95;;;2.30;;
51660;SDS011;37741;49.748;8.490;2023-04-15T11:40:22;6.30;;;2.13;;
51660;SDS011;37741;49.748;8.490;2023-04-15T11:43:04;5.13;;;1.80;;
51660;SDS011;37741;49.748;8.490;2023-04-15T11:45:35;3.78;;;2.20;;
51660;SDS011;37741;49.748;8.490;2023-04-15T11:48:24;4.27;;;2.27;;
51660;SDS011;37741;49.748;8.490;2023-04-15T11:53:20;2.85;;;1.83;;
51660;SDS011;37741;49.748;8.490;2023-04-15T11:55:47;4.22;;;1.65;;
51660;SDS011;37741;49.748;8.490;2023-04-15T12:00:45;4.28;;;2.28;;
51660;SDS011;37741;49.748;8.490;2023-04-15T12:06:02;2.67;;;1.65;;
51660;SDS011;37741;49.748;8.490;2023-04-15T12:08:48;5.75;;;1.88;;
51660;SDS011;37741;49.748;8.490;2023-04-15T12:11:14;3.00;;;1.70;;
51660;SDS011;37741;49.748;8.490;2023-04-15T12:13:44;2.50;;;1.33;;
51660;SDS011;37741;49.748;8.490;2023-04-15T12:16:17;2.80;;;1.30;;
51660;SDS011;37741;49.748;8.490;2023-04-15T12:18:46;2.38;;;1.23;;
51660;SDS011;37741;49.748;8.490;2023-04-15T12:21:18;3.85;;;1.40;;
51660;SDS011;37741;49.748;8.490;2023-04-15T12:26:17;3.55;;;1.30;;
51660;SDS011;37741;49.748;8.490;2023-04-15T12:28:52;2.60;;;1.17;;
51660;SDS011;37741;49.748;8.490;2023-04-15T12:31:27;3.75;;;1.65;;
51660;SDS011;37741;49.748;8.490;2023-04-15T12:33:57;4.20;;;1.40;;
51660;SDS011;37741;49.748;8.490;2023-04-15T12:36:24;2.28;;;1.02;;
51660;SDS011;37741;49.748;8.490;2023-04-15T12:38:50;4.35;;;1.45;;
51660;SDS011;37741;49.748;8.490;2023-04-15T12:41:16;2.40;;;1.30;;
51660;SDS011;37741;49.748;8.490;2023-04-15T12:43:43;2.63;;;1.15;;
51660;SDS011;37741;49.748;8.490;2023-04-15T12:46:09;3.35;;;1.17;;
51660;SDS011;37741;49.748;8.490;2023-04-15T12:48:35;3.00;;;1.40;;
51660;SDS011;37741;49.748;8.490;2023-04-15T12:51:00;3.17;;;1.40;;
51660;SDS011;37741;49.748;8.490;2023-04-15T12:53:26;17.95;;;2.33;;
51660;SDS011;37741;49.748;8.490;2023-04-15T12:55:52;14.05;;;1.73;;
51660;SDS011;37741;49.748;8.490;2023-04-15T12:58:18;7.47;;;1.33;;
51660;SDS011;37741;49.748;8.490;2023-04-15T13:00:43;2.42;;;1.15;;
51660;SDS011;37741;49.748;8.490;2023-04-15T13:03:09;3.42;;;1.05;;
51660;SDS011;37741;49.748;8.490;2023-04-15T13:05:35;6.15;;;1.20;;
51660;SDS011;37741;49.748;8.490;2023-04-15T13:08:03;7.82;;;1.20;;
51660;SDS011;37741;49.748;8.490;2023-04-15T13:10:28;6.22;;;1.23;;
51660;SDS011;37741;49.748;8.490;2023-04-15T13:12:55;6.07;;;1.20;;
51660;SDS011;37741;49.748;8.490;2023-04-15T13:15:21;5.03;;;1.77;;
51660;SDS011;37741;49.748;8.490;2023-04-15T13:17:47;2.80;;;1.00;;
51660;SDS011;37741;49.748;8.490;2023-04-15T13:20:13;3.17;;;0.80;;
51660;SDS011;37741;49.748;8.490;2023-04-15T13:22:39;21.85;;;2.28;;
51660;SDS011;37741;49.748;8.490;2023-04-15T13:25:05;5.88;;;1.00;;
51660;SDS011;37741;49.748;8.490;2023-04-15T13:27:32;3.55;;;1.00;;
51660;SDS011;37741;49.748;8.490;2023-04-15T13:29:58;1.73;;;0.80;;
51660;SDS011;37741;49.748;8.490;2023-04-15T13:32:23;1.00;;;0.52;;
51660;SDS011;37741;49.748;8.490;2023-04-15T13:34:49;4.78;;;0.80;;
51660;SDS011;37741;49.748;8.490;2023-04-15T13:37:15;2.05;;;0.90;;
51660;SDS011;37741;49.748;8.490;2023-04-15T13:39:41;1.55;;;0.60;;
51660;SDS011;37741;49.748;8.490;2023-04-15T13:42:07;2.40;;;0.80;;
51660;SDS011;37741;49.748;8.490;2023-04-15T13:44:32;1.45;;;0.70;;
51660;SDS011;37741;49.748;8.490;2023-04-15T13:46:58;1.67;;;0.60;;
51660;SDS011;37741;49.748;8.490;2023-04-15T13:49:25;1.83;;;0.60;;
51660;SDS011;37741;49.748;8.490;2023-04-15T13:51:51;2.08;;;0.77;;
51660;SDS011;37741;49.748;8.490;2023-04-15T13:54:16;1.92;;;0.80;;
51660;SDS011;37741;49.748;8.490;2023-04-15T13:56:42;3.28;;;0.70;;
51660;SDS011;37741;49.748;8.490;2023-04-15T13:59:08;1.33;;;0.70;;
51660;SDS011;37741;49.748;8.490;2023-04-15T14:01:34;3.38;;;0.90;;
51660;SDS011;37741;49.748;8.490;2023-04-15T14:04:00;2.42;;;0.90;;
51660;SDS011;37741;49.748;8.490;2023-04-15T14:06:26;3.22;;;0.77;;
51660;SDS011;37741;49.748;8.490;2023-04-15T14:08:52;1.58;;;0.80;;
51660;SDS011;37741;49.748;8.490;2023-04-15T14:11:19;1.70;;;0.70;;
51660;SDS011;37741;49.748;8.490;2023-04-15T14:13:44;1.85;;;0.93;;
51660;SDS011;37741;49.748;8.490;2023-04-15T14:16:10;19.55;;;3.25;;
51660;SDS011;37741;49.748;8.490;2023-04-15T14:18:36;27.83;;;4.20;;
51660;SDS011;37741;49.748;8.490;2023-04-15T14:21:01;20.00;;;2.80;;
51660;SDS011;37741;49.748;8.490;2023-04-15T14:23:30;10.52;;;1.77;;
51660;SDS011;37741;49.748;8.490;2023-04-15T14:25:55;9.32;;;1.63;;
51660;SDS011;37741;49.748;8.490;2023-04-15T14:28:21;7.32;;;1.33;;
51660;SDS011;37741;49.748;8.490;2023-04-15T14:30:48;3.00;;;1.25;;
51660;SDS011;37741;49.748;8.490;2023-04-15T14:33:14;5.22;;;1.33;;
51660;SDS011;37741;49.748;8.490;2023-04-15T14:35:40;5.40;;;1.45;;
51660;SDS011;37741;49.748;8.490;2023-04-15T14:38:05;3.08;;;1.40;;
51660;SDS011;37741;49.748;8.490;2023-04-15T14:40:34;6.88;;;2.97;;
51660;SDS011;37741;49.748;8.490;2023-04-15T14:43:00;3.35;;;1.42;;
51660;SDS011;37741;49.748;8.490;2023-04-15T14:45:26;6.78;;;2.00;;
51660;SDS011;37741;49.748;8.490;2023-04-15T14:47:51;6.63;;;1.38;;
51660;SDS011;37741;49.748;8.490;2023-04-15T14:50:17;5.03;;;1.33;;
51660;SDS011;37741;49.748;8.490;2023-04-15T14:52:43;65.68;;;8.82;;
51660;SDS011;37741;49.748;8.490;2023-04-15T14:55:09;48.22;;;4.93;;
51660;SDS011;37741;49.748;8.490;2023-04-15T14:57:36;38.20;;;5.55;;
51660;SDS011;37741;49.748;8.490;2023-04-15T15:00:03;16.70;;;4.15;;
51660;SDS011;37741;49.748;8.490;2023-04-15T15:02:31;9.68;;;2.53;;
51660;SDS011;37741;49.748;8.490;2023-04-15T15:04:57;10.95;;;2.00;;
51660;SDS011;37741;49.748;8.490;2023-04-15T15:07:23;9.32;;;1.80;;